sensor_id;sensor_type;location;lat;lon;timestamp;temperature;humidity
46816;DHT22;32787;53.316;8.670;2023-02-01T00:00:00;5.70;85.00
46816;DHT22;32787;53.316;8.670;2023-02-01T00:02:25;5.80;85.10
46816;DHT22;32787;53.316;8.670;2023-02-01T00:04:51;5.70;85.30
46816;DHT22;32787;53.316;8.670;2023-02-01T00:07:17;5.70;85.30
46816;DHT22;32787;53.316;8.670;2023-02-01T00:09:42;5.70;85.30
46816;DHT22;32787;53.316;8.670;2023-02-01T00:12:08;5.70;85.30
46816;DHT22;32787;53.316;8.670;2023-02-01T00:14:33;5.70;85.30
46816;DHT22;32787;53.316;8.670;2023-02-01T00:17:04;5.70;85.50
46816;DHT22;32787;53.316;8.670;2023-02-01T00:19:30;5.60;85.60
46816;DHT22;32787;53.316;8.670;2023-02-01T00:21:56;5.70;85.70
46816;DHT22;32787;53.316;8.670;2023-02-01T00:24:21;5.60;85.60
46816;DHT22;32787;53.316;8.670;2023-02-01T00:26:47;5.70;85.50
46816;DHT22;32787;53.316;8.670;2023-02-01T00:29:19;5.70;85.60
46816;DHT22;32787;53.316;8.670;2023-02-01T00:31:45;5.60;85.70
46816;DHT22;32787;53.316;8.670;2023-02-01T00:34:15;5.60;85.70
46816;DHT22;32787;53.316;8.670;2023-02-01T00:36:42;5.70;85.60
46816;DHT22;32787;53.316;8.670;2023-02-01T00:39:08;5.80;85.60
46816;DHT22;32787;53.316;8.670;2023-02-01T00:41:34;5.80;85.30
46816;DHT22;32787;53.316;8.670;2023-02-01T00:44:00;5.90;85.50
46816;DHT22;32787;53.316;8.670;2023-02-01T00:46:27;5.90;85.50
46816;DHT22;32787;53.316;8.670;2023-02-01T00:48:53;5.90;85.30
46816;DHT22;32787;53.316;8.670;2023-02-01T00:51:21;5.90;85.40
46816;DHT22;32787;53.316;8.670;2023-02-01T00:53:48;5.90;85.40
46816;DHT22;32787;53.316;8.670;2023-02-01T00:56:14;5.90;85.50
46816;DHT22;32787;53.316;8.670;2023-02-01T00:58:40;5.90;85.20
46816;DHT22;32787;53.316;8.670;2023-02-01T01:01:12;6.00;85.10
46816;DHT22;32787;53.316;8.670;2023-02-01T01:03:41;6.00;85.30
46816;DHT22;32787;53.316;8.670;2023-02-01T01:06:10;6.10;85.20
46816;DHT22;32787;53.316;8.670;2023-02-01T01:08:37;6.00;85.20
46816;DHT22;32787;53.316;8.670;2023-02-01T01:11:17;6.00;85.20
46816;DHT22;32787;53.316;8.670;2023-02-01T01:13:49;6.00;85.10
46816;DHT22;32787;53.316;8.670;2023-02-01T01:16:16;6.10;85.00
46816;DHT22;32787;53.316;8.670;2023-02-01T01:18:42;6.10;85.00
46816;DHT22;32787;53.316;8.670;2023-02-01T01:21:09;6.10;84.80
46816;DHT22;32787;53.316;8.670;2023-02-01T01:23:35;6.10;84.70
46816;DHT22;32787;53.316;8.670;2023-02-01T01:26:08;6.20;84.90
46816;DHT22;32787;53.316;8.670;2023-02-01T01:28:34;6.10;84.80
46816;DHT22;32787;53.316;8.670;2023-02-01T01:31:00;6.20;84.50
46816;DHT22;32787;53.316;8.670;2023-02-01T01:33:25;6.20;84.50
46816;DHT22;32787;53.316;8.670;2023-02-01T01:35:51;6.20;84.40
46816;DHT22;32787;53.316;8.670;2023-02-01T01:38:16;6.30;84.50
46816;DHT22;32787;53.316;8.670;2023-02-01T01:40:46;6.20;84.40
46816;DHT22;32787;53.316;8.670;2023-02-01T01:43:17;6.20;84.10
46816;DHT22;32787;53.316;8.670;2023-02-01T01:45:43;6.30;84.10
46816;DHT22;32787;53.316;8.670;2023-02-01T01:48:23;6.30;84.20
46816;DHT22;32787;53.316;8.670;2023-02-01T01:51:00;6.30;84.20
46816;DHT22;32787;53.316;8.670;2023-02-01T01:53:33;6.30;83.90
46816;DHT22;32787;53.316;8.670;2023-02-01T01:56:02;6.30;84.20
46816;DHT22;32787;53.316;8.670;2023-02-01T01:58:29;6.30;84.20
46816;DHT22;32787;53.316;8.670;2023-02-01T02:00:57;6.30;84.30
46816;DHT22;32787;53.316;8.670;2023-02-01T02:03:31;6.30;84.40
46816;DHT22;32787;53.316;8.670;2023-02-01T02:06:02;6.30;84.10
46816;DHT22;32787;53.316;8.670;2023-02-01T02:08:28;6.30;84.40
46816;DHT22;32787;53.316;8.670;2023-02-01T02:10:54;6.20;84.40
46816;DHT22;32787;53.316;8.670;2023-02-01T02:13:43;6.20;84.60
46816;DHT22;32787;53.316;8.670;2023-02-01T02:35:54;5.70;86.80
46816;DHT22;32787;53.316;8.670;2023-02-01T02:50:11;5.70;87.50
46816;DHT22;32787;53.316;8.670;2023-02-01T02:53:18;5.30;88.40
46816;DHT22;32787;53.316;8.670;2023-02-01T02:56:06;4.90;89.00
46816;DHT22;32787;53.316;8.670;2023-02-01T02:58:51;4.90;90.10
46816;DHT22;32787;53.316;8.670;2023-02-01T03:01:37;4.90;90.60
46816;DHT22;32787;53.316;8.670;2023-02-01T03:04:22;4.90;90.80
46816;DHT22;32787;53.316;8.670;2023-02-01T03:06:48;4.90;90.90
46816;DHT22;32787;53.316;8.670;2023-02-01T03:09:35;4.90;90.70
46816;DHT22;32787;53.316;8.670;2023-02-01T03:12:06;4.80;90.60
46816;DHT22;32787;53.316;8.670;2023-02-01T03:14:56;4.80;90.80
46816;DHT22;32787;53.316;8.670;2023-02-01T03:17:27;4.80;91.20
46816;DHT22;32787;53.316;8.670;2023-02-01T03:19:59;4.50;90.90
46816;DHT22;32787;53.316;8.670;2023-02-01T03:22:28;4.40;91.30
46816;DHT22;32787;53.316;8.670;2023-02-01T03:25:10;4.30;91.70
46816;DHT22;32787;53.316;8.670;2023-02-01T03:27:42;4.20;92.30
46816;DHT22;32787;53.316;8.670;2023-02-01T03:30:20;4.20;92.60
46816;DHT22;32787;53.316;8.670;2023-02-01T03:32:48;4.30;92.80
46816;DHT22;32787;53.316;8.670;2023-02-01T03:43:46;4.30;93.30
46816;DHT22;32787;53.316;8.670;2023-02-01T03:46:19;4.40;93.40
46816;DHT22;32787;53.316;8.670;2023-02-01T03:48:46;4.50;93.30
46816;DHT22;32787;53.316;8.670;2023-02-01T03:51:13;4.50;93.30
46816;DHT22;32787;53.316;8.670;2023-02-01T03:53:40;4.50;93.10
46816;DHT22;32787;53.316;8.670;2023-02-01T03:56:06;4.60;93.20
46816;DHT22;32787;53.316;8.670;2023-02-01T03:58:33;4.70;93.20
46816;DHT22;32787;53.316;8.670;2023-02-01T04:00:59;4.70;93.10
46816;DHT22;32787;53.316;8.670;2023-02-01T04:03:27;4.70;93.00
46816;DHT22;32787;53.316;8.670;2023-02-01T04:05:53;4.80;92.90
46816;DHT22;32787;53.316;8.670;2023-02-01T04:08:20;4.70;92.70
46816;DHT22;32787;53.316;8.670;2023-02-01T04:10:46;4.80;92.60
46816;DHT22;32787;53.316;8.670;2023-02-01T04:13:12;4.80;92.50
46816;DHT22;32787;53.316;8.670;2023-02-01T04:15:38;4.80;92.50
46816;DHT22;32787;53.316;8.670;2023-02-01T04:18:03;4.70;92.30
46816;DHT22;32787;53.316;8.670;2023-02-01T04:20:29;4.60;92.20
46816;DHT22;32787;53.316;8.670;2023-02-01T04:22:55;4.60;92.20
46816;DHT22;32787;53.316;8.670;2023-02-01T04:25:20;4.60;92.10
46816;DHT22;32787;53.316;8.670;2023-02-01T04:27:46;4.50;92.10
46816;DHT22;32787;53.316;8.670;2023-02-01T04:30:12;4.50;92.10
46816;DHT22;32787;53.316;8.670;2023-02-01T04:32:38;4.50;92.20
46816;DHT22;32787;53.316;8.670;2023-02-01T04:35:05;4.50;92.20
46816;DHT22;32787;53.316;8.670;2023-02-01T04:37:30;4.60;92.00
46816;DHT22;32787;53.316;8.670;2023-02-01T04:39:56;4.60;92.00
46816;DHT22;32787;53.316;8.670;2023-02-01T04:42:22;4.60;92.10
46816;DHT22;32787;53.316;8.670;2023-02-01T04:44:47;4.70;92.20
46816;DHT22;32787;53.316;8.670;2023-02-01T04:47:13;4.80;92.20
46816;DHT22;32787;53.316;8.670;2023-02-01T04:49:39;4.90;92.10
46816;DHT22;32787;53.316;8.670;2023-02-01T04:52:05;4.90;92.10
46816;DHT22;32787;53.316;8.670;2023-02-01T04:54:31;5.00;91.90
46816;DHT22;32787;53.316;8.670;2023-02-01T04:56:56;5.00;91.60
46816;DHT22;32787;53.316;8.670;2023-02-01T04:59:22;5.10;91.70
46816;DHT22;32787;53.316;8.670;2023-02-01T05:01:47;5.10;91.90
46816;DHT22;32787;53.316;8.670;2023-02-01T05:04:13;5.10;91.90
46816;DHT22;32787;53.316;8.670;2023-02-01T05:06:38;5.10;92.00
46816;DHT22;32787;53.316;8.670;2023-02-01T05:09:04;5.10;92.00
46816;DHT22;32787;53.316;8.670;2023-02-01T05:11:30;5.10;92.10
46816;DHT22;32787;53.316;8.670;2023-02-01T05:14:14;4.90;92.00
46816;DHT22;32787;53.316;8.670;2023-02-01T05:16:39;4.80;91.70
46816;DHT22;32787;53.316;8.670;2023-02-01T05:19:05;4.70;91.80
46816;DHT22;32787;53.316;8.670;2023-02-01T05:21:30;4.70;91.90
46816;DHT22;32787;53.316;8.670;2023-02-01T05:23:56;4.70;92.10
46816;DHT22;32787;53.316;8.670;2023-02-01T05:26:45;4.80;92.20
46816;DHT22;32787;53.316;8.670;2023-02-01T05:29:11;4.90;91.90
46816;DHT22;32787;53.316;8.670;2023-02-01T05:31:37;4.90;91.90
46816;DHT22;32787;53.316;8.670;2023-02-01T05:34:05;5.00;91.70
46816;DHT22;32787;53.316;8.670;2023-02-01T05:36:31;5.00;91.50
46816;DHT22;32787;53.316;8.670;2023-02-01T05:38:57;5.10;91.20
46816;DHT22;32787;53.316;8.670;2023-02-01T05:41:23;5.10;91.10
46816;DHT22;32787;53.316;8.670;2023-02-01T05:43:48;5.20;91.20
46816;DHT22;32787;53.316;8.670;2023-02-01T05:46:14;5.20;91.00
46816;DHT22;32787;53.316;8.670;2023-02-01T05:48:40;5.30;91.10
46816;DHT22;32787;53.316;8.670;2023-02-01T05:51:06;5.20;91.30
46816;DHT22;32787;53.316;8.670;2023-02-01T05:53:32;5.10;91.70
46816;DHT22;32787;53.316;8.670;2023-02-01T05:55:57;5.20;91.90
46816;DHT22;32787;53.316;8.670;2023-02-01T05:58:23;5.10;92.10
46816;DHT22;32787;53.316;8.670;2023-02-01T06:00:49;5.10;92.20
46816;DHT22;32787;53.316;8.670;2023-02-01T06:03:14;5.20;92.20
46816;DHT22;32787;53.316;8.670;2023-02-01T06:05:40;5.10;92.20
46816;DHT22;32787;53.316;8.670;2023-02-01T06:08:06;5.20;92.30
46816;DHT22;32787;53.316;8.670;2023-02-01T06:10:33;5.20;92.30
46816;DHT22;32787;53.316;8.670;2023-02-01T06:12:58;5.10;92.30
46816;DHT22;32787;53.316;8.670;2023-02-01T06:15:24;5.10;92.30
46816;DHT22;32787;53.316;8.670;2023-02-01T06:17:50;5.10;92.30
46816;DHT22;32787;53.316;8.670;2023-02-01T06:20:16;5.00;92.30
46816;DHT22;32787;53.316;8.670;2023-02-01T06:22:42;5.00;92.10
46816;DHT22;32787;53.316;8.670;2023-02-01T06:25:09;5.00;92.10
46816;DHT22;32787;53.316;8.670;2023-02-01T06:27:35;5.00;92.10
46816;DHT22;32787;53.316;8.670;2023-02-01T06:30:03;5.10;92.10
46816;DHT22;32787;53.316;8.670;2023-02-01T06:32:28;5.10;92.00
46816;DHT22;32787;53.316;8.670;2023-02-01T06:34:54;5.20;92.00
46816;DHT22;32787;53.316;8.670;2023-02-01T06:37:21;5.20;92.00
46816;DHT22;32787;53.316;8.670;2023-02-01T06:39:47;5.30;91.90
46816;DHT22;32787;53.316;8.670;2023-02-01T06:42:13;5.20;91.70
46816;DHT22;32787;53.316;8.670;2023-02-01T06:44:38;5.20;91.80
46816;DHT22;32787;53.316;8.670;2023-02-01T06:47:04;5.30;91.70
46816;DHT22;32787;53.316;8.670;2023-02-01T06:49:30;5.40;91.50
46816;DHT22;32787;53.316;8.670;2023-02-01T06:51:56;5.40;91.40
46816;DHT22;32787;53.316;8.670;2023-02-01T06:54:21;5.40;91.40
46816;DHT22;32787;53.316;8.670;2023-02-01T06:56:47;5.40;91.40
46816;DHT22;32787;53.316;8.670;2023-02-01T06:59:13;5.40;91.30
46816;DHT22;32787;53.316;8.670;2023-02-01T07:01:38;5.50;91.10
46816;DHT22;32787;53.316;8.670;2023-02-01T07:04:04;5.40;90.90
46816;DHT22;32787;53.316;8.670;2023-02-01T07:06:29;5.30;91.20
46816;DHT22;32787;53.316;8.670;2023-02-01T07:08:55;5.30;91.40
46816;DHT22;32787;53.316;8.670;2023-02-01T07:11:22;5.30;91.60
46816;DHT22;32787;53.316;8.670;2023-02-01T07:13:48;5.30;91.60
46816;DHT22;32787;53.316;8.670;2023-02-01T07:16:16;5.40;91.60
46816;DHT22;32787;53.316;8.670;2023-02-01T07:18:42;5.30;91.70
46816;DHT22;32787;53.316;8.670;2023-02-01T07:21:08;5.40;91.70
46816;DHT22;32787;53.316;8.670;2023-02-01T07:23:34;5.40;91.50
46816;DHT22;32787;53.316;8.670;2023-02-01T07:26:03;5.40;91.50
46816;DHT22;32787;53.316;8.670;2023-02-01T07:28:33;5.40;91.10
46816;DHT22;32787;53.316;8.670;2023-02-01T07:31:06;5.40;91.30
46816;DHT22;32787;53.316;8.670;2023-02-01T07:33:32;5.30;91.20
46816;DHT22;32787;53.316;8.670;2023-02-01T07:36:01;5.40;91.20
46816;DHT22;32787;53.316;8.670;2023-02-01T07:38:27;5.40;91.10
46816;DHT22;32787;53.316;8.670;2023-02-01T07:41:00;5.40;90.90
46816;DHT22;32787;53.316;8.670;2023-02-01T07:43:27;5.40;90.90
46816;DHT22;32787;53.316;8.670;2023-02-01T07:45:54;5.40;90.80
46816;DHT22;32787;53.316;8.670;2023-02-01T07:48:20;5.50;90.80
46816;DHT22;32787;53.316;8.670;2023-02-01T07:50:46;5.40;90.60
46816;DHT22;32787;53.316;8.670;2023-02-01T07:53:12;5.50;90.60
46816;DHT22;32787;53.316;8.670;2023-02-01T07:55:39;5.60;90.40
46816;DHT22;32787;53.316;8.670;2023-02-01T07:58:04;5.60;90.00
46816;DHT22;32787;53.316;8.670;2023-02-01T08:00:30;5.60;90.00
46816;DHT22;32787;53.316;8.670;2023-02-01T08:03:14;5.60;90.00
46816;DHT22;32787;53.316;8.670;2023-02-01T08:05:40;5.70;89.60
46816;DHT22;32787;53.316;8.670;2023-02-01T08:08:06;5.70;89.60
46816;DHT22;32787;53.316;8.670;2023-02-01T08:10:32;5.70;89.50
46816;DHT22;32787;53.316;8.670;2023-02-01T08:12:59;5.70;89.60
46816;DHT22;32787;53.316;8.670;2023-02-01T08:15:26;5.70;89.60
46816;DHT22;32787;53.316;8.670;2023-02-01T08:17:52;5.70;89.30
46816;DHT22;32787;53.316;8.670;2023-02-01T08:20:20;5.70;89.20
46816;DHT22;32787;53.316;8.670;2023-02-01T08:22:48;5.80;89.40
46816;DHT22;32787;53.316;8.670;2023-02-01T08:25:14;5.90;89.50
46816;DHT22;32787;53.316;8.670;2023-02-01T08:27:40;5.80;89.20
46816;DHT22;32787;53.316;8.670;2023-02-01T08:30:06;5.90;89.30
46816;DHT22;32787;53.316;8.670;2023-02-01T08:32:33;5.90;89.50
46816;DHT22;32787;53.316;8.670;2023-02-01T08:34:59;5.90;89.60
46816;DHT22;32787;53.316;8.670;2023-02-01T08:37:25;5.90;89.50
46816;DHT22;32787;53.316;8.670;2023-02-01T08:39:50;5.90;89.40
46816;DHT22;32787;53.316;8.670;2023-02-01T08:42:17;6.00;89.30
46816;DHT22;32787;53.316;8.670;2023-02-01T08:45:02;6.10;89.20
46816;DHT22;32787;53.316;8.670;2023-02-01T08:47:28;6.10;88.80
46816;DHT22;32787;53.316;8.670;2023-02-01T08:49:54;6.10;89.00
46816;DHT22;32787;53.316;8.670;2023-02-01T08:52:19;6.20;88.80
46816;DHT22;32787;53.316;8.670;2023-02-01T08:54:45;6.20;88.80
46816;DHT22;32787;53.316;8.670;2023-02-01T08:57:11;6.30;88.70
46816;DHT22;32787;53.316;8.670;2023-02-01T08:59:37;6.30;87.90
46816;DHT22;32787;53.316;8.670;2023-02-01T09:02:02;6.30;87.90
46816;DHT22;32787;53.316;8.670;2023-02-01T09:04:28;6.30;87.00
46816;DHT22;32787;53.316;8.670;2023-02-01T09:06:53;6.30;87.30
46816;DHT22;32787;53.316;8.670;2023-02-01T09:09:21;6.40;87.90
46816;DHT22;32787;53.316;8.670;2023-02-01T09:11:47;6.30;87.10
46816;DHT22;32787;53.316;8.670;2023-02-01T09:14:12;6.30;87.40
46816;DHT22;32787;53.316;8.670;2023-02-01T09:16:38;6.40;87.30
46816;DHT22;32787;53.316;8.670;2023-02-01T09:19:04;6.50;87.20
46816;DHT22;32787;53.316;8.670;2023-02-01T09:21:29;6.50;87.20
46816;DHT22;32787;53.316;8.670;2023-02-01T09:23:55;6.50;87.00
46816;DHT22;32787;53.316;8.670;2023-02-01T09:26:20;6.60;87.00
46816;DHT22;32787;53.316;8.670;2023-02-01T09:28:46;6.70;87.30
46816;DHT22;32787;53.316;8.670;2023-02-01T09:31:12;6.70;87.00
46816;DHT22;32787;53.316;8.670;2023-02-01T09:33:37;6.80;87.10
46816;DHT22;32787;53.316;8.670;2023-02-01T09:36:04;6.80;87.40
46816;DHT22;32787;53.316;8.670;2023-02-01T09:38:31;6.80;86.80
46816;DHT22;32787;53.316;8.670;2023-02-01T09:40:58;6.70;86.90
46816;DHT22;32787;53.316;8.670;2023-02-01T09:43:41;6.70;86.90
46816;DHT22;32787;53.316;8.670;2023-02-01T09:48:38;6.70;86.90
46816;DHT22;32787;53.316;8.670;2023-02-01T09:51:15;6.70;86.80
46816;DHT22;32787;53.316;8.670;2023-02-01T09:53:44;6.80;87.10
46816;DHT22;32787;53.316;8.670;2023-02-01T09:56:21;6.80;87.10
46816;DHT22;32787;53.316;8.670;2023-02-01T09:59:04;6.80;87.10
46816;DHT22;32787;53.316;8.670;2023-02-01T10:01:31;6.90;87.10
46816;DHT22;32787;53.316;8.670;2023-02-01T10:04:10;6.80;86.70
46816;DHT22;32787;53.316;8.670;2023-02-01T10:06:45;6.80;86.70
46816;DHT22;32787;53.316;8.670;2023-02-01T10:25:54;6.80;86.80
46816;DHT22;32787;53.316;8.670;2023-02-01T10:28:20;6.90;87.00
46816;DHT22;32787;53.316;8.670;2023-02-01T10:30:48;6.80;86.80
46816;DHT22;32787;53.316;8.670;2023-02-01T10:33:16;6.90;86.80
46816;DHT22;32787;53.316;8.670;2023-02-01T10:35:44;6.80;86.80
46816;DHT22;32787;53.316;8.670;2023-02-01T10:38:28;6.80;87.00
46816;DHT22;32787;53.316;8.670;2023-02-01T10:41:03;6.80;86.70
46816;DHT22;32787;53.316;8.670;2023-02-01T10:43:30;6.80;86.80
46816;DHT22;32787;53.316;8.670;2023-02-01T10:45:57;6.80;87.10
46816;DHT22;32787;53.316;8.670;2023-02-01T10:48:22;6.70;87.30
46816;DHT22;32787;53.316;8.670;2023-02-01T10:50:58;6.60;87.80
46816;DHT22;32787;53.316;8.670;2023-02-01T10:56:10;6.30;88.30
46816;DHT22;32787;53.316;8.670;2023-02-01T10:58:43;6.20;89.00
46816;DHT22;32787;53.316;8.670;2023-02-01T11:01:16;6.00;89.30
46816;DHT22;32787;53.316;8.670;2023-02-01T11:03:58;6.00;89.70
46816;DHT22;32787;53.316;8.670;2023-02-01T11:06:40;5.80;90.00
46816;DHT22;32787;53.316;8.670;2023-02-01T11:11:54;5.60;91.00
46816;DHT22;32787;53.316;8.670;2023-02-01T11:14:27;5.40;91.40
46816;DHT22;32787;53.316;8.670;2023-02-01T11:16:56;5.30;91.30
46816;DHT22;32787;53.316;8.670;2023-02-01T11:19:23;5.10;91.40
46816;DHT22;32787;53.316;8.670;2023-02-01T11:21:53;5.10;91.80
46816;DHT22;32787;53.316;8.670;2023-02-01T11:24:27;5.10;92.10
46816;DHT22;32787;53.316;8.670;2023-02-01T11:26:58;5.10;92.40
46816;DHT22;32787;53.316;8.670;2023-02-01T11:29:25;5.20;92.50
46816;DHT22;32787;53.316;8.670;2023-02-01T11:31:57;5.20;92.50
46816;DHT22;32787;53.316;8.670;2023-02-01T11:34:28;5.20;92.60
46816;DHT22;32787;53.316;8.670;2023-02-01T11:36:58;5.20;92.70
46816;DHT22;32787;53.316;8.670;2023-02-01T11:39:27;5.20;92.90
46816;DHT22;32787;53.316;8.670;2023-02-01T11:42:17;5.20;93.00
46816;DHT22;32787;53.316;8.670;2023-02-01T11:44:44;5.20;93.00
46816;DHT22;32787;53.316;8.670;2023-02-01T11:47:31;5.30;93.10
46816;DHT22;32787;53.316;8.670;2023-02-01T11:50:02;5.00;92.90
46816;DHT22;32787;53.316;8.670;2023-02-01T11:52:51;5.10;93.20
46816;DHT22;32787;53.316;8.670;2023-02-01T12:01:04;2.90;91.50
46816;DHT22;32787;53.316;8.670;2023-02-01T12:17:52;1.50;94.00
46816;DHT22;32787;53.316;8.670;2023-02-01T12:31:01;2.00;94.00
46816;DHT22;32787;53.316;8.670;2023-02-01T12:36:27;2.30;93.90
46816;DHT22;32787;53.316;8.670;2023-02-01T12:41:57;2.40;93.80
46816;DHT22;32787;53.316;8.670;2023-02-01T12:49:50;2.40;93.60
46816;DHT22;32787;53.316;8.670;2023-02-01T12:52:27;2.50;93.60
46816;DHT22;32787;53.316;8.670;2023-02-01T12:57:35;2.50;93.50
46816;DHT22;32787;53.316;8.670;2023-02-01T13:00:29;2.50;93.50
46816;DHT22;32787;53.316;8.670;2023-02-01T13:11:09;3.00;93.60
46816;DHT22;32787;53.316;8.670;2023-02-01T13:16:40;3.20;93.50
46816;DHT22;32787;53.316;8.670;2023-02-01T13:19:14;3.30;93.40
46816;DHT22;32787;53.316;8.670;2023-02-01T13:22:03;3.40;93.30
46816;DHT22;32787;53.316;8.670;2023-02-01T13:24:49;3.50;93.40
46816;DHT22;32787;53.316;8.670;2023-02-01T13:27:17;3.60;93.40
46816;DHT22;32787;53.316;8.670;2023-02-01T13:35:21;4.00;93.00
46816;DHT22;32787;53.316;8.670;2023-02-01T13:43:26;4.60;92.70
46816;DHT22;32787;53.316;8.670;2023-02-01T13:45:55;4.90;92.60
46816;DHT22;32787;53.316;8.670;2023-02-01T13:48:26;5.20;92.50
46816;DHT22;32787;53.316;8.670;2023-02-01T13:50:56;5.40;92.20
46816;DHT22;32787;53.316;8.670;2023-02-01T13:53:34;5.50;91.80
46816;DHT22;32787;53.316;8.670;2023-02-01T13:56:07;5.50;91.30
46816;DHT22;32787;53.316;8.670;2023-02-01T13:58:37;5.60;91.10
46816;DHT22;32787;53.316;8.670;2023-02-01T14:03:47;5.80;90.90
46816;DHT22;32787;53.316;8.670;2023-02-01T14:06:38;5.90;90.70
46816;DHT22;32787;53.316;8.670;2023-02-01T14:11:48;6.20;90.30
46816;DHT22;32787;53.316;8.670;2023-02-01T14:16:43;6.50;89.90
46816;DHT22;32787;53.316;8.670;2023-02-01T14:19:21;6.60;89.70
46816;DHT22;32787;53.316;8.670;2023-02-01T14:24:24;6.70;89.10
46816;DHT22;32787;53.316;8.670;2023-02-01T14:26:54;6.80;89.00
46816;DHT22;32787;53.316;8.670;2023-02-01T14:29:36;6.90;89.40
46816;DHT22;32787;53.316;8.670;2023-02-01T15:01:14;6.70;87.70
46816;DHT22;32787;53.316;8.670;2023-02-01T15:14:38;7.00;85.10
46816;DHT22;32787;53.316;8.670;2023-02-01T15:17:18;7.00;85.60
46816;DHT22;32787;53.316;8.670;2023-02-01T15:22:30;6.30;87.10
46816;DHT22;32787;53.316;8.670;2023-02-01T15:25:00;5.70;87.30
46816;DHT22;32787;53.316;8.670;2023-02-01T15:27:29;4.90;87.40
46816;DHT22;32787;53.316;8.670;2023-02-01T15:30:06;4.60;87.90
46816;DHT22;32787;53.316;8.670;2023-02-01T15:32:35;4.40;88.50
46816;DHT22;32787;53.316;8.670;2023-02-01T15:35:02;4.20;89.10
46816;DHT22;32787;53.316;8.670;2023-02-01T15:37:28;4.10;89.50
46816;DHT22;32787;53.316;8.670;2023-02-01T15:42:52;4.20;90.40
46816;DHT22;32787;53.316;8.670;2023-02-01T15:45:20;4.20;90.60
46816;DHT22;32787;53.316;8.670;2023-02-01T15:47:50;4.40;90.70
46816;DHT22;32787;53.316;8.670;2023-02-01T15:50:18;4.40;90.60
46816;DHT22;32787;53.316;8.670;2023-02-01T15:52:47;4.40;90.90
46816;DHT22;32787;53.316;8.670;2023-02-01T15:55:37;4.50;90.90
46816;DHT22;32787;53.316;8.670;2023-02-01T15:58:08;4.70;90.90
46816;DHT22;32787;53.316;8.670;2023-02-01T16:00:44;4.80;90.70
46816;DHT22;32787;53.316;8.670;2023-02-01T16:03:32;5.00;90.30
46816;DHT22;32787;53.316;8.670;2023-02-01T16:06:05;5.20;89.70
46816;DHT22;32787;53.316;8.670;2023-02-01T16:08:31;5.30;89.40
46816;DHT22;32787;53.316;8.670;2023-02-01T16:13:35;5.40;89.40
46816;DHT22;32787;53.316;8.670;2023-02-01T16:16:01;5.40;88.90
46816;DHT22;32787;53.316;8.670;2023-02-01T16:18:27;5.40;88.80
46816;DHT22;32787;53.316;8.670;2023-02-01T16:20:53;5.50;88.20
46816;DHT22;32787;53.316;8.670;2023-02-01T16:23:18;5.40;88.70
46816;DHT22;32787;53.316;8.670;2023-02-01T16:25:46;5.30;88.60
46816;DHT22;32787;53.316;8.670;2023-02-01T16:28:11;5.00;88.60
46816;DHT22;32787;53.316;8.670;2023-02-01T16:30:37;4.90;88.50
46816;DHT22;32787;53.316;8.670;2023-02-01T16:33:03;4.80;88.70
46816;DHT22;32787;53.316;8.670;2023-02-01T16:35:35;4.90;88.80
46816;DHT22;32787;53.316;8.670;2023-02-01T16:38:15;4.90;89.00
46816;DHT22;32787;53.316;8.670;2023-02-01T16:40:44;5.00;89.30
46816;DHT22;32787;53.316;8.670;2023-02-01T16:43:16;5.10;88.80
46816;DHT22;32787;53.316;8.670;2023-02-01T16:45:43;5.10;89.10
46816;DHT22;32787;53.316;8.670;2023-02-01T16:48:24;5.20;88.90
46816;DHT22;32787;53.316;8.670;2023-02-01T16:50:53;5.00;89.10
46816;DHT22;32787;53.316;8.670;2023-02-01T16:53:19;4.90;89.60
46816;DHT22;32787;53.316;8.670;2023-02-01T16:55:45;4.70;89.90
46816;DHT22;32787;53.316;8.670;2023-02-01T16:58:13;4.40;90.20
46816;DHT22;32787;53.316;8.670;2023-02-01T17:00:38;4.20;90.50
46816;DHT22;32787;53.316;8.670;2023-02-01T17:03:04;4.20;90.70
46816;DHT22;32787;53.316;8.670;2023-02-01T17:05:32;4.20;90.70
46816;DHT22;32787;53.316;8.670;2023-02-01T17:08:04;4.30;91.00
46816;DHT22;32787;53.316;8.670;2023-02-01T17:10:31;4.30;91.10
46816;DHT22;32787;53.316;8.670;2023-02-01T17:12:57;4.40;91.30
46816;DHT22;32787;53.316;8.670;2023-02-01T17:15:28;4.50;91.30
46816;DHT22;32787;53.316;8.670;2023-02-01T17:17:54;4.60;91.40
46816;DHT22;32787;53.316;8.670;2023-02-01T17:20:24;4.60;91.30
46816;DHT22;32787;53.316;8.670;2023-02-01T17:22:50;4.50;91.10
46816;DHT22;32787;53.316;8.670;2023-02-01T17:25:19;4.50;91.00
46816;DHT22;32787;53.316;8.670;2023-02-01T17:27:45;4.50;90.90
46816;DHT22;32787;53.316;8.670;2023-02-01T17:30:12;4.50;90.70
46816;DHT22;32787;53.316;8.670;2023-02-01T17:32:38;4.50;90.60
46816;DHT22;32787;53.316;8.670;2023-02-01T17:35:05;4.60;90.30
46816;DHT22;32787;53.316;8.670;2023-02-01T17:37:36;4.60;90.10
46816;DHT22;32787;53.316;8.670;2023-02-01T17:40:02;4.70;90.00
46816;DHT22;32787;53.316;8.670;2023-02-01T17:42:29;4.70;89.90
46816;DHT22;32787;53.316;8.670;2023-02-01T17:47:46;4.60;89.70
46816;DHT22;32787;53.316;8.670;2023-02-01T17:50:15;4.70;89.70
46816;DHT22;32787;53.316;8.670;2023-02-01T17:52:41;4.70;89.60
46816;DHT22;32787;53.316;8.670;2023-02-01T17:55:21;4.80;89.60
46816;DHT22;32787;53.316;8.670;2023-02-01T17:57:48;4.80;89.70
46816;DHT22;32787;53.316;8.670;2023-02-01T18:00:15;4.90;89.20
46816;DHT22;32787;53.316;8.670;2023-02-01T18:02:41;5.00;89.20
46816;DHT22;32787;53.316;8.670;2023-02-01T18:05:23;5.00;88.90
46816;DHT22;32787;53.316;8.670;2023-02-01T18:07:51;4.90;89.00
46816;DHT22;32787;53.316;8.670;2023-02-01T18:10:17;4.90;89.00
46816;DHT22;32787;53.316;8.670;2023-02-01T18:12:42;5.10;88.70
46816;DHT22;32787;53.316;8.670;2023-02-01T18:15:23;5.30;88.50
46816;DHT22;32787;53.316;8.670;2023-02-01T18:17:49;5.30;88.60
46816;DHT22;32787;53.316;8.670;2023-02-01T18:20:17;5.40;88.40
46816;DHT22;32787;53.316;8.670;2023-02-01T18:22:43;5.40;88.50
46816;DHT22;32787;53.316;8.670;2023-02-01T18:25:18;5.40;88.50
46816;DHT22;32787;53.316;8.670;2023-02-01T18:27:46;5.40;88.40
46816;DHT22;32787;53.316;8.670;2023-02-01T18:30:13;5.30;88.20
46816;DHT22;32787;53.316;8.670;2023-02-01T18:32:39;5.40;87.90
46816;DHT22;32787;53.316;8.670;2023-02-01T18:35:26;5.40;87.70
46816;DHT22;32787;53.316;8.670;2023-02-01T18:37:52;5.50;87.50
46816;DHT22;32787;53.316;8.670;2023-02-01T18:40:29;5.50;87.60
46816;DHT22;32787;53.316;8.670;2023-02-01T18:42:55;5.50;87.30
46816;DHT22;32787;53.316;8.670;2023-02-01T18:45:30;5.60;87.00
46816;DHT22;32787;53.316;8.670;2023-02-01T18:47:58;5.50;87.20
46816;DHT22;32787;53.316;8.670;2023-02-01T18:50:28;5.50;87.30
46816;DHT22;32787;53.316;8.670;2023-02-01T18:52:56;5.60;87.10
46816;DHT22;32787;53.316;8.670;2023-02-01T18:55:23;5.70;86.90
46816;DHT22;32787;53.316;8.670;2023-02-01T18:57:49;5.70;86.80
46816;DHT22;32787;53.316;8.670;2023-02-01T19:00:16;5.70;87.20
46816;DHT22;32787;53.316;8.670;2023-02-01T19:02:42;5.70;87.00
46816;DHT22;32787;53.316;8.670;2023-02-01T19:05:09;5.80;86.50
46816;DHT22;32787;53.316;8.670;2023-02-01T19:07:35;5.70;86.50
46816;DHT22;32787;53.316;8.670;2023-02-01T19:10:02;5.70;86.60